Time;durP1;ratioP1;P1;durP2;ratioP2;P2;SDS_P1;SDS_P2;PMS_P1;PMS_P2;Temp;Humidity;BMP_temperature;BMP_pressure;BME280_temperature;BME280_humidity;BME280_pressure;Samples;Min_cycle;Max_cycle;Signal;HPM_P1;HPM_P2
2024/03/15 00:00:12;;;;;;;33.30;17.35;;;;;;;;;;5061182;28;20031;-46
2024/03/15 00:02:37;;;;;;;35.00;17.67;;;;;;;;;;5063566;28;20481;-48
2024/03/15 00:05:03;;;;;;;36.00;17.40;;;;;;;;;;5060984;28;20059;-49
2024/03/15 00:07:29;;;;;;;29.80;15.73;;;;;;;;;;5047840;28;20048;-47
2024/03/15 00:09:54;;;;;;;30.33;16.80;;;;;;;;;;5047120;28;20478;-48
2024/03/15 00:12:20;;;;;;;42.67;19.00;;;;;;;;;;5063661;28;20074;-52
2024/03/15 00:14:45;;;;;;;39.13;18.77;;;;;;;;;;5061031;28;20350;-46
2024/03/15 00:17:11;;;;;;;37.90;18.63;;;;;;;;;;5043243;28;20025;-49
2024/03/15 00:19:36;;;;;;;36.72;18.70;;;;;;;;;;5042419;28;20025;-47
2024/03/15 00:22:02;;;;;;;34.25;17.88;;;;;;;;;;5047285;28;20032;-47
2024/03/15 00:24:47;;;;;;;35.13;17.50;;;;;;;;;;5043165;28;20025;-47
2024/03/15 00:27:12;;;;;;;35.28;17.52;;;;;;;;;;5043243;28;20029;-49
2024/03/15 00:29:38;;;;;;;36.67;17.23;;;;;;;;;;5042308;28;20484;-50
2024/03/15 00:32:04;;;;;;;34.67;17.88;;;;;;;;;;5057727;28;20116;-51
2024/03/15 00:34:30;;;;;;;32.40;17.17;;;;;;;;;;5043156;28;20033;-48
2024/03/15 00:36:55;;;;;;;39.85;18.75;;;;;;;;;;5044181;28;20029;-51
2024/03/15 00:39:20;;;;;;;34.20;17.70;;;;;;;;;;5043390;28;20060;-49
2024/03/15 00:41:46;;;;;;;35.22;18.20;;;;;;;;;;5044156;28;20025;-47
2024/03/15 00:44:12;;;;;;;54.30;24.60;;;;;;;;;;5044714;28;20048;-51
2024/03/15 00:46:38;;;;;;;47.60;23.00;;;;;;;;;;5062324;28;20028;-52
2024/03/15 00:49:03;;;;;;;46.15;22.52;;;;;;;;;;5031620;28;20036;-51
2024/03/15 00:51:29;;;;;;;50.50;24.05;;;;;;;;;;5050213;28;20087;-50
2024/03/15 00:53:54;;;;;;;46.50;22.60;;;;;;;;;;5059824;28;20016;-49
2024/03/15 00:56:19;;;;;;;49.22;23.33;;;;;;;;;;5064428;28;20031;-50
2024/03/15 00:58:44;;;;;;;43.83;21.27;;;;;;;;;;5067435;28;20098;-48
2024/03/15 01:01:10;;;;;;;41.03;18.67;;;;;;;;;;5053707;28;20025;-50
2024/03/15 01:03:35;;;;;;;35.55;17.20;;;;;;;;;;5046305;28;20028;-51
2024/03/15 01:06:01;;;;;;;35.03;16.48;;;;;;;;;;5052573;28;20131;-49
2024/03/15 01:08:26;;;;;;;33.88;17.92;;;;;;;;;;5028836;28;20148;-49
2024/03/15 01:10:52;;;;;;;33.70;17.60;;;;;;;;;;5054487;28;20040;-50
2024/03/15 01:13:17;;;;;;;31.55;17.73;;;;;;;;;;5045593;28;20021;-47
2024/03/15 01:15:43;;;;;;;32.80;17.88;;;;;;;;;;5054132;28;20017;-52
2024/03/15 01:18:09;;;;;;;30.85;16.55;;;;;;;;;;5065962;28;20016;-52
2024/03/15 01:20:34;;;;;;;34.47;18.13;;;;;;;;;;5064174;28;20491;-50
2024/03/15 01:23:00;;;;;;;33.03;16.83;;;;;;;;;;5065858;28;20020;-48
2024/03/15 01:25:26;;;;;;;35.83;17.77;;;;;;;;;;5063958;28;20417;-48
2024/03/15 01:27:51;;;;;;;33.08;17.00;;;;;;;;;;5066138;28;20413;-49
2024/03/15 01:30:17;;;;;;;31.77;17.38;;;;;;;;;;5063668;28;20101;-51
2024/03/15 01:32:43;;;;;;;36.28;18.20;;;;;;;;;;5047052;28;20468;-51
2024/03/15 01:35:08;;;;;;;31.05;16.25;;;;;;;;;;5063619;28;20082;-48
2024/03/15 01:37:36;;;;;;;32.65;16.48;;;;;;;;;;5066279;28;20426;-51
2024/03/15 01:40:02;;;;;;;34.08;17.50;;;;;;;;;;5054262;28;20123;-50
2024/03/15 01:42:27;;;;;;;33.13;16.48;;;;;;;;;;5028210;28;20112;-50
2024/03/15 01:44:53;;;;;;;30.67;16.55;;;;;;;;;;5046771;28;20035;-52
2024/03/15 01:47:19;;;;;;;28.90;16.77;;;;;;;;;;5065354;28;20025;-52
2024/03/15 01:49:45;;;;;;;33.00;17.08;;;;;;;;;;5063716;28;20028;-52
2024/03/15 01:52:11;;;;;;;34.85;16.35;;;;;;;;;;5059719;28;20495;-53
2024/03/15 01:54:36;;;;;;;33.90;17.52;;;;;;;;;;5053833;28;20063;-48
2024/03/15 01:57:01;;;;;;;29.40;16.95;;;;;;;;;;5064731;28;20028;-49
2024/03/15 01:59:27;;;;;;;30.05;15.88;;;;;;;;;;5065285;28;20399;-50
2024/03/15 02:02:02;;;;;;;27.83;16.40;;;;;;;;;;5028246;28;20024;-51
2024/03/15 02:04:27;;;;;;;28.60;15.65;;;;;;;;;;5064906;28;20369;-47
2024/03/15 02:06:52;;;;;;;29.30;15.85;;;;;;;;;;5044352;28;20052;-48
2024/03/15 02:09:17;;;;;;;29.95;16.75;;;;;;;;;;5045487;28;20371;-51
2024/03/15 02:11:43;;;;;;;32.13;16.08;;;;;;;;;;5061355;28;20032;-49
2024/03/15 02:14:11;;;;;;;32.42;16.92;;;;;;;;;;5064670;28;20036;-51
2024/03/15 02:16:37;;;;;;;31.55;17.50;;;;;;;;;;5017465;28;20485;-51
2024/03/15 02:19:02;;;;;;;32.95;17.40;;;;;;;;;;5022137;28;20117;-49
2024/03/15 02:21:27;;;;;;;35.42;18.42;;;;;;;;;;5020768;28;20049;-52
2024/03/15 02:23:53;;;;;;;29.48;16.95;;;;;;;;;;5020451;28;20036;-53
2024/03/15 02:26:18;;;;;;;37.00;17.88;;;;;;;;;;5015864;28;20273;-48
2024/03/15 02:28:43;;;;;;;35.85;18.88;;;;;;;;;;5022387;28;20534;-50
2024/03/15 02:31:10;;;;;;;32.13;18.08;;;;;;;;;;5020984;28;20539;-53
2024/03/15 02:33:35;;;;;;;32.97;17.60;;;;;;;;;;5022107;28;20405;-53
2024/03/15 02:36:01;;;;;;;32.90;17.52;;;;;;;;;;5010842;28;20037;-52
2024/03/15 02:38:26;;;;;;;31.67;17.67;;;;;;;;;;5002447;28;20133;-49
2024/03/15 02:40:52;;;;;;;31.30;16.40;;;;;;;;;;5011289;28;20517;-49
2024/03/15 02:43:17;;;;;;;35.42;17.70;;;;;;;;;;5021775;28;20474;-48
2024/03/15 02:45:42;;;;;;;29.08;17.00;;;;;;;;;;5012473;28;20104;-52
2024/03/15 02:48:08;;;;;;;32.47;17.35;;;;;;;;;;5032202;28;20037;-47
2024/03/15 02:50:33;;;;;;;31.10;17.58;;;;;;;;;;5050473;28;20447;-48
2024/03/15 02:53:00;;;;;;;32.78;16.95;;;;;;;;;;5063810;28;20381;-50
2024/03/15 02:55:26;;;;;;;30.58;16.65;;;;;;;;;;5057931;28;20012;-50
2024/03/15 02:57:51;;;;;;;31.90;17.55;;;;;;;;;;5053844;28;20017;-47
2024/03/15 03:00:16;;;;;;;29.30;17.23;;;;;;;;;;5044058;28;20040;-54
2024/03/15 03:02:42;;;;;;;25.70;15.80;;;;;;;;;;5044121;28;20029;-52
2024/03/15 03:05:08;;;;;;;31.15;17.60;;;;;;;;;;5012092;28;20036;-50
2024/03/15 03:07:34;;;;;;;34.65;18.35;;;;;;;;;;5046200;28;20064;-53
2024/03/15 03:09:59;;;;;;;30.08;16.27;;;;;;;;;;5052506;28;20471;-52
2024/03/15 03:12:24;;;;;;;31.50;18.13;;;;;;;;;;5044206;28;20264;-50
2024/03/15 03:14:49;;;;;;;30.33;17.00;;;;;;;;;;5044322;28;21000;-52
2024/03/15 03:17:16;;;;;;;36.92;18.80;;;;;;;;;;5046794;28;20021;-52
2024/03/15 03:19:41;;;;;;;33.35;17.67;;;;;;;;;;5017200;28;20060;-51
2024/03/15 03:22:07;;;;;;;34.72;18.85;;;;;;;;;;5045057;28;20128;-48
2024/03/15 03:24:32;;;;;;;41.65;19.10;;;;;;;;;;5007592;28;20393;-52
2024/03/15 03:26:57;;;;;;;30.65;17.08;;;;;;;;;;5061188;28;20122;-47
2024/03/15 03:29:22;;;;;;;34.10;18.90;;;;;;;;;;5063652;28;20120;-51
2024/03/15 03:31:48;;;;;;;41.03;20.30;;;;;;;;;;5044184;28;20366;-49
2024/03/15 03:34:13;;;;;;;44.42;20.77;;;;;;;;;;5043666;28;20031;-51
2024/03/15 03:36:38;;;;;;;46.00;20.00;;;;;;;;;;5058636;28;20397;-49
2024/03/15 03:39:04;;;;;;;43.55;19.73;;;;;;;;;;5063543;28;20111;-51
2024/03/15 03:41:30;;;;;;;39.47;17.92;;;;;;;;;;5048653;28;20060;-49
2024/03/15 03:43:55;;;;;;;41.90;20.77;;;;;;;;;;5043474;28;20052;-51
2024/03/15 03:46:21;;;;;;;38.80;18.90;;;;;;;;;;5056960;28;20348;-47
2024/03/15 03:48:47;;;;;;;35.22;18.50;;;;;;;;;;5063443;28;20036;-52
2024/03/15 03:51:12;;;;;;;40.95;18.65;;;;;;;;;;5049096;28;20078;-48
2024/03/15 03:53:37;;;;;;;41.47;19.63;;;;;;;;;;5043395;28;20489;-52
2024/03/15 03:56:03;;;;;;;30.48;17.15;;;;;;;;;;5053760;28;20085;-49
2024/03/15 03:58:28;;;;;;;40.15;19.00;;;;;;;;;;5063130;28;20465;-50
2024/03/15 04:00:54;;;;;;;34.53;17.95;;;;;;;;;;5061096;28;20028;-51
2024/03/15 04:03:19;;;;;;;39.63;17.67;;;;;;;;;;5063352;28;20381;-51
2024/03/15 04:05:44;;;;;;;30.05;17.73;;;;;;;;;;5060697;28;20031;-47
2024/03/15 04:08:12;;;;;;;37.65;17.85;;;;;;;;;;5062512;28;20528;-52
2024/03/15 04:10:38;;;;;;;34.15;17.88;;;;;;;;;;5060633;28;20174;-50
2024/03/15 04:13:03;;;;;;;32.95;17.90;;;;;;;;;;5063328;28;20048;-49
2024/03/15 04:15:29;;;;;;;36.35;17.58;;;;;;;;;;5058703;28;20013;-48
2024/03/15 04:17:55;;;;;;;36.13;17.67;;;;;;;;;;5043728;28;20036;-49
2024/03/15 04:20:22;;;;;;;32.70;16.75;;;;;;;;;;5053397;28;20415;-50
2024/03/15 04:22:47;;;;;;;31.67;16.98;;;;;;;;;;5066946;28;20020;-49
2024/03/15 04:25:16;;;;;;;35.58;18.98;;;;;;;;;;5064650;28;20017;-52
2024/03/15 04:27:42;;;;;;;;;;;;;;;;;;5063094;28;20031;-52
2024/03/15 04:30:13;;;;;;;36.08;17.63;;;;;;;;;;5046792;28;19913;-50
2024/03/15 04:32:49;;;;;;;35.40;19.10;;;;;;;;;;5046901;28;20035;-49
2024/03/15 04:35:16;;;;;;;33.90;17.77;;;;;;;;;;5048016;28;20067;-49
2024/03/15 04:37:41;;;;;;;32.22;18.40;;;;;;;;;;5046824;28;20020;-49
2024/03/15 04:40:10;;;;;;;31.42;16.38;;;;;;;;;;5049725;28;20123;-49
2024/03/15 04:42:35;;;;;;;37.33;18.88;;;;;;;;;;5066851;28;20066;-51
2024/03/15 04:45:04;;;;;;;35.28;18.27;;;;;;;;;;5064367;28;20111;-50
2024/03/15 04:47:29;;;;;;;32.67;18.52;;;;;;;;;;5066554;28;20033;-51
2024/03/15 04:49:55;;;;;;;33.83;17.98;;;;;;;;;;5064161;28;20025;-48
2024/03/15 04:52:22;;;;;;;34.72;16.80;;;;;;;;;;5046710;28;20064;-50
2024/03/15 04:54:47;;;;;;;38.28;19.13;;;;;;;;;;5047580;28;20016;-52
2024/03/15 04:57:12;;;;;;;34.22;18.63;;;;;;;;;;5045415;28;20035;-49
2024/03/15 04:59:37;;;;;;;30.58;16.55;;;;;;;;;;5045606;28;20511;-50
2024/03/15 05:02:03;;;;;;;33.65;17.88;;;;;;;;;;5061195;28;20020;-51
2024/03/15 05:04:28;;;;;;;36.20;19.42;;;;;;;;;;5065938;28;20535;-50
2024/03/15 05:06:54;;;;;;;31.85;18.58;;;;;;;;;;5063181;28;20136;-50
2024/03/15 05:09:22;;;;;;;43.50;19.40;;;;;;;;;;5066023;28;20036;-48
2024/03/15 05:11:47;;;;;;;41.70;19.13;;;;;;;;;;5046265;28;20037;-50
2024/03/15 05:14:13;;;;;;;34.78;18.42;;;;;;;;;;5054233;28;20039;-50
2024/03/15 05:16:38;;;;;;;36.17;18.48;;;;;;;;;;5038309;28;20085;-53
2024/03/15 05:19:06;;;;;;;36.85;19.08;;;;;;;;;;5045865;28;20575;-52
2024/03/15 05:21:33;;;;;;;38.75;19.60;;;;;;;;;;5061132;28;20028;-52
2024/03/15 05:23:58;;;;;;;36.20;17.92;;;;;;;;;;5065205;28;20028;-50
2024/03/15 05:26:24;;;;;;;39.72;20.73;;;;;;;;;;5064043;28;20174;-51
2024/03/15 05:28:50;;;;;;;42.45;21.40;;;;;;;;;;5063538;28;20056;-52
2024/03/15 05:31:22;;;;;;;41.70;21.15;;;;;;;;;;5050979;28;20098;-50
2024/03/15 05:33:47;;;;;;;40.75;21.52;;;;;;;;;;5044573;28;20085;-50
2024/03/15 05:36:13;;;;;;;40.17;21.42;;;;;;;;;;5045876;28;20119;-51
2024/03/15 05:38:38;;;;;;;37.55;20.00;;;;;;;;;;5044642;28;20489;-50
2024/03/15 05:41:05;;;;;;;39.53;20.63;;;;;;;;;;5061257;28;20108;-52
2024/03/15 05:43:30;;;;;;;43.00;22.58;;;;;;;;;;5056256;28;20111;-50
2024/03/15 05:45:55;;;;;;;44.55;22.02;;;;;;;;;;5054820;28;20623;-48
2024/03/15 05:48:21;;;;;;;37.35;20.77;;;;;;;;;;5065187;28;20028;-51
2024/03/15 05:50:47;;;;;;;41.92;22.35;;;;;;;;;;5063441;28;20027;-50
2024/03/15 05:53:12;;;;;;;37.67;21.63;;;;;;;;;;5058593;28;20033;-49
2024/03/15 05:55:38;;;;;;;40.78;21.38;;;;;;;;;;5052133;28;20017;-50
2024/03/15 05:58:03;;;;;;;41.85;21.88;;;;;;;;;;5049726;28;20174;-50
2024/03/15 06:00:28;;;;;;;48.95;25.05;;;;;;;;;;5044956;28;20810;-50
2024/03/15 06:02:54;;;;;;;57.50;27.00;;;;;;;;;;5044988;28;20024;-50
2024/03/15 06:05:19;;;;;;;55.13;27.70;;;;;;;;;;5044062;28;20013;-50
2024/03/15 06:07:45;;;;;;;47.20;24.83;;;;;;;;;;5044317;28;20048;-47
2024/03/15 06:10:10;;;;;;;54.08;28.20;;;;;;;;;;5048245;28;20035;-45
2024/03/15 06:12:36;;;;;;;56.08;29.00;;;;;;;;;;5064844;28;20017;-51
2024/03/15 06:15:02;;;;;;;56.22;28.55;;;;;;;;;;5059344;28;20035;-47
2024/03/15 06:17:27;;;;;;;62.63;31.27;;;;;;;;;;5064780;28;20050;-49
2024/03/15 06:19:55;;;;;;;61.35;32.28;;;;;;;;;;5062213;28;20032;-49
2024/03/15 06:22:22;;;;;;;59.92;30.80;;;;;;;;;;5064597;28;20449;-49
2024/03/15 06:24:48;;;;;;;54.58;29.30;;;;;;;;;;5059765;28;20480;-47
2024/03/15 06:27:13;;;;;;;57.92;30.70;;;;;;;;;;5044090;28;20025;-49
2024/03/15 06:29:43;;;;;;;51.00;27.65;;;;;;;;;;5043428;28;20021;-51
2024/03/15 06:32:08;;;;;;;59.67;32.97;;;;;;;;;;5044559;28;20082;-48
2024/03/15 06:34:34;;;;;;;56.92;30.52;;;;;;;;;;5043531;28;20040;-49
2024/03/15 06:37:01;;;;;;;52.65;29.33;;;;;;;;;;5050553;28;20455;-48
2024/03/15 06:42:20;;;;;;;51.90;28.70;;;;;;;;;;5063487;28;20024;-49
2024/03/15 06:44:50;;;;;;;55.13;26.05;;;;;;;;;;5062147;28;20029;-49
2024/03/15 06:47:15;;;;;;;46.80;26.77;;;;;;;;;;5042977;28;20257;-49
2024/03/15 06:50:06;;;;;;;48.15;25.58;;;;;;;;;;5043703;28;20361;-50
2024/03/15 06:52:34;;;;;;;52.35;28.27;;;;;;;;;;5043759;28;20056;-49
2024/03/15 06:55:01;;;;;;;50.40;27.00;;;;;;;;;;5046103;28;20551;-50
2024/03/15 06:57:27;;;;;;;46.05;24.15;;;;;;;;;;5064217;28;20423;-49
2024/03/15 06:59:53;;;;;;;45.25;24.13;;;;;;;;;;5048503;28;20582;-47
2024/03/15 07:02:19;;;;;;;49.17;24.45;;;;;;;;;;5044123;28;20029;-46
2024/03/15 07:04:45;;;;;;;47.72;23.38;;;;;;;;;;5043320;28;20405;-49
2024/03/15 07:07:10;;;;;;;43.92;23.45;;;;;;;;;;5043817;28;20041;-50
2024/03/15 07:09:36;;;;;;;39.95;23.05;;;;;;;;;;5042002;28;20037;-48
2024/03/15 07:12:02;;;;;;;49.50;25.13;;;;;;;;;;5029845;28;20052;-48
2024/03/15 07:14:28;;;;;;;42.00;21.80;;;;;;;;;;5042969;28;20028;-50
2024/03/15 07:16:53;;;;;;;40.00;22.90;;;;;;;;;;5048972;28;20059;-46
2024/03/15 07:19:20;;;;;;;45.83;24.05;;;;;;;;;;5008688;28;20036;-46
2024/03/15 07:21:45;;;;;;;45.47;24.88;;;;;;;;;;5060036;28;20032;-48
2024/03/15 07:24:10;;;;;;;43.00;24.50;;;;;;;;;;5061532;28;20025;-50
2024/03/15 07:26:36;;;;;;;47.58;24.67;;;;;;;;;;5045684;28;20032;-51
2024/03/15 07:29:01;;;;;;;43.92;24.10;;;;;;;;;;5042745;28;20385;-49
2024/03/15 07:31:27;;;;;;;44.58;23.88;;;;;;;;;;5057524;28;20090;-51
2024/03/15 07:33:52;;;;;;;40.13;21.30;;;;;;;;;;5063397;28;20047;-51
2024/03/15 07:36:20;;;;;;;37.08;21.00;;;;;;;;;;5061040;28;20389;-49
2024/03/15 07:38:47;;;;;;;45.08;21.95;;;;;;;;;;5045315;28;20021;-45
2024/03/15 07:41:13;;;;;;;42.65;22.58;;;;;;;;;;5061209;28;20024;-50
2024/03/15 07:43:38;;;;;;;43.03;22.23;;;;;;;;;;5062961;28;20098;-50
2024/03/15 07:46:05;;;;;;;45.03;22.60;;;;;;;;;;5061254;28;20040;-50
2024/03/15 07:48:30;;;;;;;34.22;20.23;;;;;;;;;;5055711;28;20489;-49
2024/03/15 07:50:55;;;;;;;37.75;20.58;;;;;;;;;;5053118;28;20040;-48
2024/03/15 07:53:21;;;;;;;37.58;20.55;;;;;;;;;;5056138;28;20120;-47
2024/03/15 07:55:46;;;;;;;41.72;23.17;;;;;;;;;;5003086;28;20037;-48
2024/03/15 07:58:12;;;;;;;36.88;22.27;;;;;;;;;;5047052;28;20548;-49
2024/03/15 08:00:38;;;;;;;33.15;20.65;;;;;;;;;;5053496;28;20446;-46
2024/03/15 08:03:04;;;;;;;32.97;19.63;;;;;;;;;;5067168;28;20028;-48
2024/03/15 08:05:29;;;;;;;31.33;19.20;;;;;;;;;;5029433;28;20082;-49
2024/03/15 08:07:55;;;;;;;35.33;21.27;;;;;;;;;;5057765;28;20053;-50
2024/03/15 08:10:22;;;;;;;39.15;21.52;;;;;;;;;;5046463;28;20453;-46
2024/03/15 08:12:47;;;;;;;42.90;25.13;;;;;;;;;;5047136;28;20029;-48
2024/03/15 08:15:16;;;;;;;37.70;23.45;;;;;;;;;;5050378;28;20453;-49
2024/03/15 08:17:43;;;;;;;32.55;20.17;;;;;;;;;;5031870;28;20508;-49
2024/03/15 08:20:09;;;;;;;31.45;19.20;;;;;;;;;;5065520;28;20066;-50
2024/03/15 08:22:37;;;;;;;33.80;18.30;;;;;;;;;;5046518;28;20385;-52
2024/03/15 08:25:02;;;;;;;32.47;19.30;;;;;;;;;;5014530;28;20325;-50
2024/03/15 08:27:29;;;;;;;30.20;18.30;;;;;;;;;;5065428;28;20201;-50
2024/03/15 08:29:56;;;;;;;26.98;17.08;;;;;;;;;;5046736;28;20434;-48
2024/03/15 08:32:21;;;;;;;28.50;19.40;;;;;;;;;;5048579;28;20040;-45
2024/03/15 08:34:47;;;;;;;39.33;20.80;;;;;;;;;;5064516;28;20028;-48
2024/03/15 08:37:13;;;;;;;35.47;19.95;;;;;;;;;;5066459;28;20020;-49
2024/03/15 08:39:38;;;;;;;31.67;18.83;;;;;;;;;;5064486;28;20119;-47
2024/03/15 08:42:04;;;;;;;37.67;19.33;;;;;;;;;;5064368;28;20296;-49
2024/03/15 08:44:31;;;;;;;32.13;19.15;;;;;;;;;;5064500;28;20027;-51
2024/03/15 08:46:57;;;;;;;31.23;17.88;;;;;;;;;;5009538;28;20167;-51
2024/03/15 08:49:23;;;;;;;29.47;17.70;;;;;;;;;;5056884;28;20100;-47
2024/03/15 08:51:48;;;;;;;27.55;17.40;;;;;;;;;;5059510;28;20405;-49
2024/03/15 08:54:14;;;;;;;26.75;16.65;;;;;;;;;;5046153;28;20104;-48
2024/03/15 08:56:40;;;;;;;25.33;17.10;;;;;;;;;;5061759;28;20526;-50
2024/03/15 08:59:06;;;;;;;27.30;17.77;;;;;;;;;;5066081;28;20031;-52
2024/03/15 09:01:35;;;;;;;27.90;16.00;;;;;;;;;;5063769;28;20346;-52
2024/03/15 09:04:01;;;;;;;25.35;16.98;;;;;;;;;;5029850;28;20028;-49
2024/03/15 09:06:27;;;;;;;27.90;16.75;;;;;;;;;;5051814;28;20512;-49
2024/03/15 09:08:56;;;;;;;28.83;16.45;;;;;;;;;;5012204;28;20048;-50
2024/03/15 09:11:22;;;;;;;;;;;;;;;;;;5051700;28;20032;-49
2024/03/15 09:13:47;;;;;;;28.08;16.33;;;;;;;;;;5045763;28;19909;-47
2024/03/15 09:16:13;;;;;;;27.33;17.27;;;;;;;;;;5046015;28;20041;-49
2024/03/15 09:18:38;;;;;;;26.23;15.93;;;;;;;;;;5049038;28;20044;-45
2024/03/15 09:21:04;;;;;;;27.33;15.88;;;;;;;;;;5045318;28;20478;-51
2024/03/15 09:23:29;;;;;;;26.88;15.95;;;;;;;;;;4993750;28;20041;-47
2024/03/15 09:25:54;;;;;;;28.95;16.27;;;;;;;;;;5038095;28;20535;-48
2024/03/15 09:28:20;;;;;;;26.73;16.80;;;;;;;;;;5065583;28;20035;-49
2024/03/15 09:30:54;;;;;;;23.35;14.50;;;;;;;;;;5061260;28;20016;-47
2024/03/15 09:33:20;;;;;;;28.48;15.55;;;;;;;;;;5055248;28;20450;-48
2024/03/15 09:35:46;;;;;;;26.83;15.13;;;;;;;;;;5049575;28;20021;-47
2024/03/15 09:38:15;;;;;;;25.15;15.07;;;;;;;;;;5045578;28;20528;-49
2024/03/15 09:40:40;;;;;;;25.00;14.40;;;;;;;;;;5052851;28;20785;-49
2024/03/15 09:43:12;;;;;;;23.70;13.88;;;;;;;;;;5065168;28;20173;-52
2024/03/15 09:45:38;;;;;;;35.40;14.18;;;;;;;;;;5064339;28;20012;-49
2024/03/15 09:48:03;;;;;;;23.50;12.90;;;;;;;;;;5063187;28;20044;-50
2024/03/15 09:50:31;;;;;;;19.27;11.63;;;;;;;;;;5057738;28;20036;-52
2024/03/15 09:52:57;;;;;;;22.02;12.55;;;;;;;;;;5044195;28;20465;-51
2024/03/15 09:55:23;;;;;;;19.88;11.80;;;;;;;;;;5044444;28;20023;-50
2024/03/15 09:57:49;;;;;;;19.30;11.10;;;;;;;;;;5044949;28;20040;-50
2024/03/15 10:00:21;;;;;;;18.73;10.15;;;;;;;;;;5048637;28;20468;-49
2024/03/15 10:02:47;;;;;;;20.48;11.30;;;;;;;;;;5064630;28;20025;-46
2024/03/15 10:05:15;;;;;;;20.92;11.05;;;;;;;;;;5062583;28;20020;-47
2024/03/15 10:07:41;;;;;;;17.08;10.43;;;;;;;;;;5063742;28;20045;-50
2024/03/15 10:10:11;;;;;;;24.02;12.57;;;;;;;;;;5061040;28;20464;-46
2024/03/15 10:12:40;;;;;;;18.83;10.65;;;;;;;;;;5044422;28;20290;-50
2024/03/15 10:15:10;;;;;;;15.18;8.80;;;;;;;;;;5046588;28;20039;-51
2024/03/15 10:17:37;;;;;;;21.73;10.77;;;;;;;;;;5048265;28;20024;-51
2024/03/15 10:20:10;;;;;;;16.10;10.63;;;;;;;;;;5046779;28;20082;-50
2024/03/15 10:22:36;;;;;;;14.48;10.05;;;;;;;;;;5064339;28;20013;-51
2024/03/15 10:25:01;;;;;;;23.42;11.75;;;;;;;;;;5062081;28;20030;-49
2024/03/15 10:27:27;;;;;;;22.80;13.27;;;;;;;;;;5064240;28;20044;-51
2024/03/15 10:29:54;;;;;;;18.92;10.90;;;;;;;;;;5060153;28;21969;-49
2024/03/15 10:32:19;;;;;;;25.08;12.63;;;;;;;;;;5064144;28;20333;-46
2024/03/15 10:34:46;;;;;;;34.90;18.13;;;;;;;;;;5043977;28;20343;-49
2024/03/15 10:37:12;;;;;;;42.25;22.67;;;;;;;;;;5044952;28;20270;-48
2024/03/15 10:39:37;;;;;;;12.90;8.15;;;;;;;;;;5043591;28;20717;-49
2024/03/15 10:42:04;;;;;;;16.42;10.43;;;;;;;;;;5048773;28;20647;-53
2024/03/15 10:44:31;;;;;;;18.48;9.20;;;;;;;;;;5043761;28;20469;-51
2024/03/15 10:46:56;;;;;;;13.85;8.50;;;;;;;;;;5062457;28;20039;-51
2024/03/15 10:49:22;;;;;;;18.40;8.18;;;;;;;;;;5063800;28;20067;-48
2024/03/15 10:51:48;;;;;;;22.33;8.73;;;;;;;;;;5043826;28;20039;-50
2024/03/15 10:54:15;;;;;;;17.17;9.90;;;;;;;;;;5043895;28;20039;-50
2024/03/15 10:56:41;;;;;;;18.05;9.27;;;;;;;;;;5050464;28;20020;-48
2024/03/15 10:59:07;;;;;;;15.75;9.85;;;;;;;;;;5043745;28;20094;-52
2024/03/15 11:01:33;;;;;;;15.35;9.20;;;;;;;;;;5045920;28;20037;-51
2024/03/15 11:03:59;;;;;;;13.77;8.55;;;;;;;;;;5044809;28;20025;-51
2024/03/15 11:06:37;;;;;;;16.33;8.82;;;;;;;;;;5055525;28;20044;-50
2024/03/15 11:09:20;;;;;;;18.90;9.32;;;;;;;;;;5063340;28;20105;-50
2024/03/15 11:11:54;;;;;;;15.48;10.68;;;;;;;;;;5058813;28;20447;-46
2024/03/15 11:14:22;;;;;;;14.93;10.10;;;;;;;;;;5043165;28;20021;-46
2024/03/15 11:16:55;;;;;;;16.17;10.07;;;;;;;;;;5045841;28;20067;-47
2024/03/15 11:19:20;;;;;;;17.05;10.20;;;;;;;;;;5046968;28;20275;-48
2024/03/15 11:21:45;;;;;;;26.93;10.83;;;;;;;;;;5050855;28;20324;-50
2024/03/15 11:24:13;;;;;;;16.67;10.75;;;;;;;;;;5059517;28;20778;-52
2024/03/15 11:26:39;;;;;;;17.48;10.57;;;;;;;;;;5051052;28;20028;-50
2024/03/15 11:29:08;;;;;;;15.97;10.03;;;;;;;;;;5042117;28;20040;-48
2024/03/15 11:31:33;;;;;;;19.60;11.73;;;;;;;;;;5055316;28;20342;-49
2024/03/15 11:34:00;;;;;;;17.80;10.68;;;;;;;;;;5051294;28;20033;-50
2024/03/15 11:36:27;;;;;;;25.42;12.93;;;;;;;;;;4989350;28;20413;-51
2024/03/15 11:38:52;;;;;;;18.50;10.52;;;;;;;;;;5042810;28;20330;-49
2024/03/15 11:41:20;;;;;;;33.30;19.23;;;;;;;;;;5052309;28;20025;-52
2024/03/15 11:43:46;;;;;;;17.98;9.70;;;;;;;;;;5061800;28;20469;-51
2024/03/15 11:46:11;;;;;;;16.63;9.85;;;;;;;;;;5057922;28;20043;-51
2024/03/15 11:48:36;;;;;;;28.85;13.30;;;;;;;;;;5042925;28;20466;-51
2024/03/15 11:51:02;;;;;;;15.88;9.20;;;;;;;;;;5053069;28;20036;-51
2024/03/15 11:53:28;;;;;;;18.90;10.10;;;;;;;;;;5061975;28;20039;-49
2024/03/15 11:55:53;;;;;;;30.52;13.65;;;;;;;;;;5051050;28;20021;-52
2024/03/15 11:58:22;;;;;;;16.33;10.45;;;;;;;;;;5042629;28;20024;-49
2024/03/15 12:00:48;;;;;;;21.70;11.43;;;;;;;;;;5042543;28;20657;-50
2024/03/15 12:03:14;;;;;;;17.95;10.20;;;;;;;;;;5041636;28;20458;-50
2024/03/15 12:05:42;;;;;;;17.63;10.07;;;;;;;;;;5050078;28;20032;-47
2024/03/15 12:08:14;;;;;;;15.95;9.70;;;;;;;;;;5060426;28;20023;-48
2024/03/15 12:10:39;;;;;;;15.80;9.00;;;;;;;;;;5050141;28;20029;-49
2024/03/15 12:13:20;;;;;;;24.60;13.55;;;;;;;;;;5046591;28;20029;-50
2024/03/15 12:15:46;;;;;;;18.98;10.05;;;;;;;;;;5045175;28;20028;-49
2024/03/15 12:18:21;;;;;;;15.30;9.77;;;;;;;;;;5042153;28;20025;-49
2024/03/15 12:20:47;;;;;;;17.00;9.77;;;;;;;;;;5051402;28;20020;-49
2024/03/15 12:23:17;;;;;;;18.80;10.70;;;;;;;;;;5044592;28;20033;-49
2024/03/15 12:25:42;;;;;;;15.85;9.60;;;;;;;;;;5043518;28;20428;-49
2024/03/15 12:28:12;;;;;;;17.20;10.05;;;;;;;;;;5042756;28;20033;-48
2024/03/15 12:30:40;;;;;;;16.58;8.88;;;;;;;;;;5042911;28;20422;-50
2024/03/15 12:33:06;;;;;;;14.32;9.10;;;;;;;;;;5042835;28;20050;-47
2024/03/15 12:35:31;;;;;;;14.93;8.85;;;;;;;;;;5048814;28;20028;-47
2024/03/15 12:37:58;;;;;;;16.77;9.00;;;;;;;;;;5062581;28;20017;-48
2024/03/15 12:40:23;;;;;;;41.20;23.02;;;;;;;;;;5057291;28;20266;-48
2024/03/15 12:42:49;;;;;;;17.67;10.27;;;;;;;;;;5055162;28;20396;-48
2024/03/15 12:45:15;;;;;;;18.85;9.07;;;;;;;;;;5056482;28;20051;-47
2024/03/15 12:47:41;;;;;;;14.10;8.68;;;;;;;;;;5065766;28;20021;-49
2024/03/15 12:50:11;;;;;;;13.32;8.43;;;;;;;;;;5063977;28;20043;-50
2024/03/15 12:52:36;;;;;;;12.40;7.93;;;;;;;;;;5053925;28;20103;-50
2024/03/15 12:55:04;;;;;;;13.57;9.02;;;;;;;;;;5048454;28;20136;-51
2024/03/15 12:57:30;;;;;;;13.70;9.47;;;;;;;;;;5045873;28;20104;-49
2024/03/15 12:59:55;;;;;;;14.70;9.25;;;;;;;;;;5045276;28;20357;-51
2024/03/15 13:02:20;;;;;;;13.97;8.17;;;;;;;;;;5045621;28;20024;-47
2024/03/15 13:04:46;;;;;;;12.45;8.48;;;;;;;;;;5044549;28;20259;-50
2024/03/15 13:07:11;;;;;;;13.33;8.73;;;;;;;;;;5048405;28;20474;-47
2024/03/15 13:09:36;;;;;;;12.52;8.48;;;;;;;;;;5044655;28;20302;-45
2024/03/15 13:12:01;;;;;;;14.02;7.88;;;;;;;;;;5057514;28;20331;-48
2024/03/15 13:14:27;;;;;;;17.02;8.57;;;;;;;;;;5044244;28;20074;-47
2024/03/15 13:16:52;;;;;;;19.98;9.35;;;;;;;;;;5062873;28;20491;-49
2024/03/15 13:19:17;;;;;;;14.98;8.02;;;;;;;;;;5065167;28;20540;-48
2024/03/15 13:21:43;;;;;;;11.60;7.53;;;;;;;;;;5050293;28;20028;-54
2024/03/15 13:24:08;;;;;;;18.92;7.95;;;;;;;;;;5044407;28;20262;-50
2024/03/15 13:26:33;;;;;;;14.57;8.03;;;;;;;;;;5052079;28;20021;-51
2024/03/15 13:28:59;;;;;;;16.85;9.13;;;;;;;;;;5044697;28;20305;-47
2024/03/15 13:31:25;;;;;;;16.45;8.98;;;;;;;;;;5044299;28;20033;-50
2024/03/15 13:33:50;;;;;;;15.57;9.23;;;;;;;;;;5045241;28;20095;-48
2024/03/15 13:36:15;;;;;;;14.57;9.25;;;;;;;;;;5057219;28;20683;-49
2024/03/15 13:38:41;;;;;;;16.63;9.30;;;;;;;;;;5063288;28;20189;-49
2024/03/15 13:41:07;;;;;;;14.18;9.20;;;;;;;;;;5046324;28;20055;-47
2024/03/15 13:43:32;;;;;;;13.82;8.88;;;;;;;;;;5044855;28;20105;-47
2024/03/15 13:45:57;;;;;;;11.55;7.72;;;;;;;;;;5054692;28;20058;-48
2024/03/15 13:48:23;;;;;;;16.08;9.05;;;;;;;;;;5064922;28;20420;-50
2024/03/15 13:50:48;;;;;;;13.80;8.07;;;;;;;;;;5062380;28;20029;-48
2024/03/15 13:53:13;;;;;;;13.33;8.53;;;;;;;;;;5064654;28;20249;-50
2024/03/15 13:55:39;;;;;;;19.00;9.47;;;;;;;;;;5062822;28;20348;-46
2024/03/15 13:58:04;;;;;;;15.07;8.27;;;;;;;;;;5064771;28;20679;-48
2024/03/15 14:00:40;;;;;;;16.75;8.77;;;;;;;;;;5059307;28;20107;-50
2024/03/15 14:03:05;;;;;;;15.60;7.97;;;;;;;;;;5044907;28;20155;-49
2024/03/15 14:05:35;;;;;;;13.02;7.95;;;;;;;;;;5046171;28;20103;-51
2024/03/15 14:08:24;;;;;;;14.93;8.68;;;;;;;;;;5051451;28;20128;-48
2024/03/15 14:10:50;;;;;;;26.08;8.63;;;;;;;;;;5053240;28;20032;-51
2024/03/15 14:13:17;;;;;;;14.52;8.48;;;;;;;;;;5064801;28;20087;-47
2024/03/15 14:15:43;;;;;;;14.93;8.60;;;;;;;;;;5054622;28;20462;-49
2024/03/15 14:18:10;;;;;;;14.13;8.02;;;;;;;;;;5043926;28;20074;-46